Time;durP1;ratioP1;P1;durP2;ratioP2;P2;SDS_P1;SDS_P2;PMS_P1;PMS_P2;Temp;Humidity;BMP_temperature;BMP_pressure;BME280_temperature;BME280_humidity;BME280_pressure;Samples;Min_cycle;Max_cycle;Signal;HPM_P1;HPM_P2
2023/07/01 00:00:05;;;;;;;;;;;;;;;11.58;100.00;99193.16;4990664;28;19933;-82
2023/07/01 00:02:30;;;;;;;;;;;;;;;11.71;100.00;99194.19;4974121;28;20402;-85
2023/07/01 00:05:06;;;;;;;;;;;;;;;11.69;100.00;99179.28;4992807;28;19924;-92
2023/07/01 00:07:32;;;;;;;;;;;;;;;11.54;100.00;99181.00;4991724;28;19962;-86
2023/07/01 00:09:57;;;;;;;;;;;;;;;11.55;100.00;99174.75;4992397;28;19957;-86
2023/07/01 05:19:41;;;;;;;;;;;;;;;10.84;100.00;99032.88;5297459;23;19926;-91
2023/07/01 05:22:09;;;;;;;;;;;;;;;10.87;100.00;99032.72;4986927;28;19926;-91
2023/07/01 05:24:34;;;;;;;;;;;;;;;10.84;100.00;99024.94;4985103;28;20396;-89
2023/07/01 05:26:59;;;;;;;;;;;;;;;10.85;100.00;99034.56;4984814;28;19918;-89
2023/07/01 05:29:26;;;;;;;;;;;;;;;10.90;100.00;99024.59;4968036;28;19925;-89
2023/07/01 05:31:52;;;;;;;;;;;;;;;10.81;100.00;99030.41;4968026;28;19923;-89
2023/07/01 05:34:17;;;;;;;;;;;;;;;10.77;100.00;99028.84;4983587;28;20052;-89
2023/07/01 05:36:43;;;;;;;;;;;;;;;10.81;100.00;99022.47;4967507;28;19918;-89
2023/07/01 05:39:09;;;;;;;;;;;;;;;10.74;100.00;99029.91;4967924;28;19973;-90
2023/07/01 05:41:35;;;;;;;;;;;;;;;10.72;100.00;99018.50;4967167;28;20412;-89
2023/07/01 05:44:00;;;;;;;;;;;;;;;10.72;100.00;99021.16;4984720;28;19964;-88
2023/07/01 05:46:26;;;;;;;;;;;;;;;10.77;100.00;99031.50;4967768;28;19918;-88
2023/07/01 05:48:51;;;;;;;;;;;;;;;10.76;100.00;99037.75;4965810;28;19941;-88
2023/07/01 05:51:16;;;;;;;;;;;;;;;10.79;100.00;99033.13;4984149;28;20356;-87
2023/07/01 05:53:44;;;;;;;;;;;;;;;10.93;100.00;99031.50;4984610;28;19918;-87
2023/07/01 05:56:09;;;;;;;;;;;;;;;10.78;100.00;99033.22;4967173;28;19928;-86
2023/07/01 05:58:34;;;;;;;;;;;;;;;10.75;100.00;99028.94;4984478;28;19918;-88
2023/07/01 06:01:00;;;;;;;;;;;;;;;10.94;100.00;99035.88;4984210;28;19918;-89
2023/07/01 06:03:25;;;;;;;;;;;;;;;10.81;100.00;99025.09;4966017;28;19972;-89
2023/07/01 06:05:50;;;;;;;;;;;;;;;10.82;100.00;99034.78;4984678;28;20363;-87
2023/07/01 06:08:16;;;;;;;;;;;;;;;10.81;100.00;99038.34;4984212;28;19925;-89
2023/07/01 06:10:41;;;;;;;;;;;;;;;10.79;100.00;99033.13;4966542;28;19918;-88
2023/07/01 06:13:06;;;;;;;;;;;;;;;10.86;100.00;99031.00;4984375;28;20306;-89
2023/07/01 06:15:31;;;;;;;;;;;;;;;10.75;100.00;99018.34;4984483;28;19940;-89
2023/07/01 06:17:57;;;;;;;;;;;;;;;10.70;100.00;99025.69;4964670;28;19925;-89
2023/07/01 06:20:24;;;;;;;;;;;;;;;10.71;100.00;99017.66;4983915;28;19968;-88
2023/07/01 06:22:50;;;;;;;;;;;;;;;10.76;100.00;99020.06;4965843;28;19926;-88
2023/07/01 06:25:15;;;;;;;;;;;;;;;10.72;100.00;99022.03;4983938;28;19971;-88
2023/07/01 06:27:40;;;;;;;;;;;;;;;10.83;100.00;99024.09;4984955;28;19918;-86
2023/07/01 06:30:06;;;;;;;;;;;;;;;10.71;100.00;99017.66;4984354;28;19964;-84
2023/07/01 06:32:31;;;;;;;;;;;;;;;10.69;100.00;99024.84;4982520;28;19934;-87
2023/07/01 06:34:56;;;;;;;;;;;;;;;10.64;100.00;99013.66;4983762;28;19925;-88
2023/07/01 06:37:21;;;;;;;;;;;;;;;10.70;100.00;99015.94;4984098;28;19983;-87
2023/07/01 06:39:47;;;;;;;;;;;;;;;10.65;100.00;99020.66;4966132;28;19918;-86
2023/07/01 06:42:12;;;;;;;;;;;;;;;10.69;100.00;99030.16;4983360;28;19929;-86
2023/07/01 06:44:37;;;;;;;;;;;;;;;10.66;100.00;99025.03;4983432;28;20417;-86
2023/07/01 06:47:03;;;;;;;;;;;;;;;10.62;100.00;99023.47;4965830;28;19924;-86
2023/07/01 06:49:28;;;;;;;;;;;;;;;10.79;100.00;99025.19;4982082;28;20341;-86
2023/07/01 06:51:53;;;;;;;;;;;;;;;10.64;100.00;99026.91;4983415;28;20005;-86
2023/07/01 06:54:19;;;;;;;;;;;;;;;10.82;100.00;99018.88;4966340;28;19921;-86
2023/07/01 06:56:44;;;;;;;;;;;;;;;10.70;100.00;99021.25;4983741;28;19918;-85
2023/07/01 06:59:10;;;;;;;;;;;;;;;10.65;100.00;99028.59;4983164;28;19921;-87
2023/07/01 07:01:35;;;;;;;;;;;;;;;10.77;100.00;99032.38;4965735;28;20842;-86
2023/07/01 07:30:46;;;;;;;;;;;;;;;10.89;100.00;99036.97;5204172;23;20309;-90
2023/07/01 07:33:12;;;;;;;;;;;;;;;11.14;100.00;99037.41;4974044;28;19922;-87
2023/07/01 07:35:37;;;;;;;;;;;;;;;10.90;100.00;99035.19;4973244;28;20332;-84
2023/07/01 07:38:03;;;;;;;;;;;;;;;11.04;100.00;99029.97;4973246;28;19985;-84
2023/07/01 07:40:28;;;;;;;;;;;;;;;10.92;100.00;99027.16;4955694;28;19922;-86
2023/07/01 07:42:53;;;;;;;;;;;;;;;10.85;100.00;99029.28;4973384;28;20009;-85
2023/07/01 07:45:20;;;;;;;;;;;;;;;11.02;100.00;99020.38;4971816;28;20353;-86
2023/07/01 07:47:45;;;;;;;;;;;;;;;10.83;100.00;99028.50;4978820;28;20284;-86
2023/07/01 07:50:11;;;;;;;;;;;;;;;10.81;100.00;99027.75;4955792;28;19919;-86
2023/07/01 07:52:36;;;;;;;;;;;;;;;11.03;100.00;99022.94;4955700;28;19962;-85
2023/07/01 07:55:01;;;;;;;;;;;;;;;10.86;100.00;99015.94;4947094;28;20357;-85
2023/07/01 07:57:26;;;;;;;;;;;;;;;10.93;100.00;99019.13;4962379;28;19923;-83
2023/07/01 07:59:52;;;;;;;;;;;;;;;10.88;100.00;99018.50;4971793;28;19919;-87
2023/07/01 08:02:17;;;;;;;;;;;;;;;10.93;100.00;99011.19;4979360;28;19929;-85
2023/07/01 08:04:42;;;;;;;;;;;;;;;10.82;100.00;99016.22;4973057;28;19918;-85
2023/07/01 08:07:07;;;;;;;;;;;;;;;10.89;100.00;99014.94;4955625;28;19925;-85
2023/07/01 08:09:34;;;;;;;;;;;;;;;10.90;100.00;99014.00;4955467;28;19925;-86
2023/07/01 08:12:00;;;;;;;;;;;;;;;10.86;100.00;99015.09;4955604;28;20274;-85
2023/07/01 08:14:26;;;;;;;;;;;;;;;10.83;100.00;99008.19;4971487;28;19918;-85
2023/07/01 08:16:53;;;;;;;;;;;;;;;10.88;100.00;99016.72;4972836;28;19928;-84
2023/07/01 08:19:18;;;;;;;;;;;;;;;11.11;100.00;99014.56;4972909;28;19932;-84
2023/07/01 08:21:43;;;;;;;;;;;;;;;10.97;100.00;99007.38;4972777;28;19918;-84
2023/07/01 08:24:09;;;;;;;;;;;;;;;10.83;100.00;99010.84;4972783;28;19922;-85
2023/07/01 08:26:34;;;;;;;;;;;;;;;10.85;100.00;99008.06;4972684;28;19922;-85
2023/07/01 08:28:59;;;;;;;;;;;;;;;10.83;100.00;99007.31;4971525;28;20300;-85
2023/07/01 08:31:24;;;;;;;;;;;;;;;10.79;100.00;99009.28;4972963;28;19977;-85
2023/07/01 08:33:50;;;;;;;;;;;;;;;10.96;100.00;99005.69;4980022;28;20021;-85
2023/07/01 08:36:15;;;;;;;;;;;;;;;10.80;100.00;99003.06;4981514;28;20376;-85
2023/07/01 08:38:40;;;;;;;;;;;;;;;10.84;100.00;98998.44;4966327;28;19965;-85
2023/07/01 08:41:09;;;;;;;;;;;;;;;10.78;100.00;98999.63;4966648;28;19918;-83
2023/07/01 08:43:34;;;;;;;;;;;;;;;10.76;100.00;98998.03;4949112;28;19919;-85
2023/07/01 08:46:02;;;;;;;;;;;;;;;10.78;100.00;99001.44;4965140;28;20286;-84
2023/07/01 08:48:30;;;;;;;;;;;;;;;10.80;100.00;99000.41;4958563;28;20432;-84
2023/07/01 08:51:00;;;;;;;;;;;;;;;10.88;100.00;98992.88;4976073;28;19933;-84
2023/07/01 08:53:26;;;;;;;;;;;;;;;10.76;100.00;98988.25;4958467;28;20008;-85
2023/07/01 08:55:52;;;;;;;;;;;;;;;10.84;100.00;98990.50;4958715;28;19961;-88
2023/07/01 08:58:17;;;;;;;;;;;;;;;10.75;100.00;98996.31;4975661;28;20408;-85
2023/07/01 09:00:43;;;;;;;;;;;;;;;10.81;100.00;98985.34;4974690;28;19922;-86
2023/07/01 09:03:08;;;;;;;;;;;;;;;10.79;100.00;98984.59;4975702;28;19922;-88
2023/07/01 09:05:34;;;;;;;;;;;;;;;10.81;100.00;98982.72;4975769;28;19914;-86
2023/07/01 09:07:59;;;;;;;;;;;;;;;10.76;100.00;98987.41;4982303;28;19918;-85
2023/07/01 09:10:25;;;;;;;;;;;;;;;10.73;100.00;98989.28;4973679;28;20037;-85
2023/07/01 09:12:50;;;;;;;;;;;;;;;10.96;100.00;98981.84;4981146;28;19922;-85
2023/07/01 09:15:15;;;;;;;;;;;;;;;10.83;100.00;98983.47;4981389;28;19949;-84
2023/07/01 09:17:41;;;;;;;;;;;;;;;10.80;100.00;98979.22;4956983;28;20258;-88
2023/07/01 09:20:07;;;;;;;;;;;;;;;10.89;100.00;98980.47;4966948;28;20284;-86
2023/07/01 09:22:34;;;;;;;;;;;;;;;10.80;100.00;98978.34;4948294;28;20013;-85
2023/07/01 09:24:59;;;;;;;;;;;;;;;10.85;100.00;98970.97;4975579;28;19925;-84
2023/07/01 09:27:25;;;;;;;;;;;;;;;10.74;100.00;98963.66;4975541;28;20262;-85
2023/07/01 09:29:52;;;;;;;;;;;;;;;10.79;100.00;98974.00;4956790;28;19918;-85
2023/07/01 09:32:28;;;;;;;;;;;;;;;10.79;100.00;98976.66;4957630;28;20020;-88
2023/07/01 09:34:55;;;;;;;;;;;;;;;10.78;100.00;98970.47;4955302;28;20877;-85
2023/07/01 09:37:21;;;;;;;;;;;;;;;10.81;100.00;98969.47;4964847;28;19961;-85
2023/07/01 09:39:47;;;;;;;;;;;;;;;10.78;100.00;98966.97;4980803;28;19965;-86
2023/07/01 09:42:12;;;;;;;;;;;;;;;10.81;100.00;98969.47;4975319;28;19922;-85
2023/07/01 09:44:38;;;;;;;;;;;;;;;10.78;100.00;98967.81;4973822;28;19953;-86
2023/07/01 09:47:04;;;;;;;;;;;;;;;10.78;100.00;98961.69;4956041;28;19922;-85
2023/07/01 09:49:35;;;;;;;;;;;;;;;10.80;100.00;98962.44;4970617;28;19941;-85
2023/07/01 09:52:00;;;;;;;;;;;;;;;10.78;100.00;98959.03;4948252;28;19968;-85
2023/07/01 09:54:27;;;;;;;;;;;;;;;10.71;100.00;98953.22;4979562;28;19987;-85
2023/07/01 09:56:53;;;;;;;;;;;;;;;10.82;100.00;98949.97;4974803;28;19995;-86
2023/07/01 09:59:19;;;;;;;;;;;;;;;10.80;100.00;98946.53;4973596;28;20021;-86
2023/07/01 10:01:45;;;;;;;;;;;;;;;10.71;100.00;98948.78;4956075;28;19922;-85
2023/07/01 10:04:11;;;;;;;;;;;;;;;10.72;100.00;98939.91;4957088;28;19918;-86
2023/07/01 10:06:36;;;;;;;;;;;;;;;10.81;100.00;98942.97;4957037;28;19973;-84
2023/07/01 10:09:02;;;;;;;;;;;;;;;10.78;100.00;98937.84;4956911;28;19925;-85
2023/07/01 10:11:28;;;;;;;;;;;;;;;10.79;100.00;98939.56;4974610;28;20016;-84
2023/07/01 10:13:54;;;;;;;;;;;;;;;10.82;100.00;98926.97;4955687;28;20072;-88
2023/07/01 10:16:20;;;;;;;;;;;;;;;10.72;100.00;98934.59;4956735;28;19935;-85
2023/07/01 10:18:46;;;;;;;;;;;;;;;10.89;100.00;98932.78;4955602;28;19918;-85
2023/07/01 10:21:30;;;;;;;;;;;;;;;10.78;100.00;98929.88;4956559;28;19924;-87
2023/07/01 10:23:56;;;;;;;;;;;;;;;10.92;100.00;98934.41;4973539;28;20362;-86
2023/07/01 10:26:40;;;;;;;;;;;;;;;10.83;100.00;98938.41;4956605;28;20255;-85
2023/07/01 10:29:24;;;;;;;;;;;;;;;10.77;100.00;98934.34;4973026;28;19965;-85
2023/07/01 10:32:08;;;;;;;;;;;;;;;10.74;100.00;98934.50;4974055;28;19925;-85
2023/07/01 10:34:51;;;;;;;;;;;;;;;10.85;100.00;98934.75;4974045;28;19922;-86
2023/07/01 10:37:17;;;;;;;;;;;;;;;10.70;100.00;98931.16;4974077;28;20393;-87
2023/07/01 10:39:43;;;;;;;;;;;;;;;10.81;100.00;98921.75;4974219;28;19918;-88
2023/07/01 10:42:32;;;;;;;;;;;;;;;10.80;100.00;98925.34;4974294;28;20029;-85
2023/07/01 10:45:09;;;;;;;;;;;;;;;10.73;100.00;98920.38;4972650;28;19989;-85
2023/07/01 10:47:35;;;;;;;;;;;;;;;10.77;100.00;98923.75;4973858;28;19925;-85
2023/07/01 10:50:00;;;;;;;;;;;;;;;10.71;100.00;98916.97;4956392;28;19922;-86
2023/07/01 10:52:26;;;;;;;;;;;;;;;10.81;100.00;98916.47;4973708;28;19918;-85
2023/07/01 10:54:51;;;;;;;;;;;;;;;10.77;100.00;98913.16;4956399;28;19925;-85
2023/07/01 10:57:19;;;;;;;;;;;;;;;10.73;100.00;98904.50;4973833;28;19918;-86
2023/07/01 10:59:45;;;;;;;;;;;;;;;10.78;100.00;98914.81;4954601;28;19918;-85
2023/07/01 11:02:11;;;;;;;;;;;;;;;10.79;100.00;98913.06;4956327;28;19929;-86
2023/07/01 11:04:51;;;;;;;;;;;;;;;10.85;100.00;98912.66;4973510;28;20004;-85
2023/07/01 11:07:24;;;;;;;;;;;;;;;10.81;100.00;98909.34;4956079;28;19958;-85
2023/07/01 11:09:49;;;;;;;;;;;;;;;10.72;100.00;98902.81;4955421;28;19919;-85
2023/07/01 11:12:15;;;;;;;;;;;;;;;10.87;100.00;98900.22;4956230;28;19932;-84
2023/07/01 11:14:40;;;;;;;;;;;;;;;10.75;100.00;98906.22;4954892;28;20277;-85
2023/07/01 11:17:10;;;;;;;;;;;;;;;10.81;100.00;98903.22;4956018;28;20009;-81
2023/07/01 11:19:36;;;;;;;;;;;;;;;10.72;100.00;98896.63;4955242;28;19976;-86
2023/07/01 11:22:01;;;;;;;;;;;;;;;10.78;100.00;98906.88;4955597;28;19965;-85
2023/07/01 11:24:27;;;;;;;;;;;;;;;10.80;100.00;98896.19;4955962;28;19918;-86
2023/07/01 11:26:58;;;;;;;;;;;;;;;10.77;100.00;98894.59;4953385;28;19952;-87
2023/07/01 11:29:24;;;;;;;;;;;;;;;10.80;100.00;98890.91;4953830;28;19976;-85
2023/07/01 11:31:56;;;;;;;;;;;;;;;10.78;100.00;98887.50;4951629;28;19965;-85
2023/07/01 11:34:21;;;;;;;;;;;;;;;10.81;100.00;98887.31;4954878;28;20008;-85
2023/07/01 11:36:48;;;;;;;;;;;;;;;10.76;100.00;98892.88;4952784;28;20016;-85
2023/07/01 11:39:17;;;;;;;;;;;;;;;10.77;100.00;98883.13;4955944;28;20360;-85
2023/07/01 11:41:43;;;;;;;;;;;;;;;10.81;100.00;98882.84;4973047;28;19918;-86
2023/07/01 11:44:10;;;;;;;;;;;;;;;10.85;100.00;98880.88;4971800;28;19933;-85
2023/07/01 11:46:37;;;;;;;;;;;;;;;10.77;100.00;98878.69;4973060;28;19919;-86
2023/07/01 11:49:29;;;;;;;;;;;;;;;10.72;100.00;98883.38;4972366;28;19925;-85
2023/07/01 11:51:55;;;;;;;;;;;;;;;10.78;100.00;98879.53;4972539;28;19922;-85
2023/07/01 11:54:25;;;;;;;;;;;;;;;10.71;100.00;98887.84;4955360;28;19922;-85
2023/07/01 11:57:06;;;;;;;;;;;;;;;10.72;100.00;98886.91;4972933;28;20392;-85
2023/07/01 11:59:33;;;;;;;;;;;;;;;10.73;100.00;98888.59;4969659;28;19926;-84
2023/07/01 12:01:59;;;;;;;;;;;;;;;10.72;100.00;98889.56;4972983;28;19992;-85
2023/07/01 12:04:24;;;;;;;;;;;;;;;10.72;100.00;98886.03;4972890;28;19918;-85
2023/07/01 12:06:49;;;;;;;;;;;;;;;10.82;100.00;98891.69;4953182;28;19941;-85
2023/07/01 12:09:30;;;;;;;;;;;;;;;10.91;100.00;98888.47;4973655;28;20316;-85
2023/07/01 12:11:55;;;;;;;;;;;;;;;10.75;100.00;98890.31;4959592;28;20008;-85
2023/07/01 12:14:23;;;;;;;;;;;;;;;10.81;100.00;98888.16;4957891;28;20033;-86
2023/07/01 12:16:49;;;;;;;;;;;;;;;10.78;100.00;98895.44;4976720;28;19961;-86
2023/07/01 12:19:21;;;;;;;;;;;;;;;10.82;100.00;98886.38;4958541;28;19919;-89
2023/07/01 12:21:47;;;;;;;;;;;;;;;10.67;100.00;98888.09;4975785;28;19924;-86
2023/07/01 12:24:19;;;;;;;;;;;;;;;10.72;100.00;98891.34;4950265;28;19925;-86
2023/07/01 12:26:50;;;;;;;;;;;;;;;10.80;100.00;98894.41;4959022;28;19922;-86
2023/07/01 12:29:16;;;;;;;;;;;;;;;10.76;100.00;98894.69;4957095;28;19918;-86
2023/07/01 12:31:41;;;;;;;;;;;;;;;10.79;100.00;98887.41;4959034;28;20394;-86
2023/07/01 12:34:06;;;;;;;;;;;;;;;10.79;100.00;98894.50;4976595;28;19929;-86
2023/07/01 12:36:32;;;;;;;;;;;;;;;10.88;100.00;98891.28;4958822;28;19922;-86
2023/07/01 12:38:58;;;;;;;;;;;;;;;10.77;100.00;98888.41;4958967;28;19922;-86
2023/07/01 12:41:25;;;;;;;;;;;;;;;10.97;100.00;98884.63;4965844;28;20065;-86
2023/07/01 12:43:50;;;;;;;;;;;;;;;10.84;100.00;98890.63;4947646;28;19973;-86
2023/07/01 12:46:16;;;;;;;;;;;;;;;10.78;100.00;98895.44;4949462;28;20436;-86
2023/07/01 12:48:44;;;;;;;;;;;;;;;10.81;100.00;98892.63;4949311;28;20374;-89
2023/07/01 12:51:09;;;;;;;;;;;;;;;10.80;100.00;98890.91;4964882;28;19997;-85
2023/07/01 12:53:35;;;;;;;;;;;;;;;11.01;100.00;98888.78;4949143;28;19918;-86
2023/07/01 12:56:00;;;;;;;;;;;;;;;10.84;100.00;98892.44;4949228;28;20340;-86
2023/07/01 12:58:25;;;;;;;;;;;;;;;10.80;100.00;98889.13;4966129;28;20421;-86
2023/07/01 13:00:50;;;;;;;;;;;;;;;10.83;100.00;98888.06;4964568;28;20298;-86
2023/07/01 13:03:16;;;;;;;;;;;;;;;10.86;100.00;98890.53;4949786;28;19922;-90
2023/07/01 13:05:41;;;;;;;;;;;;;;;10.87;100.00;98879.00;4964417;28;19918;-86
2023/07/01 13:08:06;;;;;;;;;;;;;;;10.80;100.00;98880.28;4966355;28;19922;-86
2023/07/01 13:10:36;;;;;;;;;;;;;;;10.81;100.00;98874.91;4949065;28;19973;-84
2023/07/01 13:13:01;;;;;;;;;;;;;;;10.86;100.00;98869.34;4975061;28;20357;-86
2023/07/01 13:15:28;;;;;;;;;;;;;;;10.83;100.00;98870.41;4956900;28;20017;-86
2023/07/01 13:17:54;;;;;;;;;;;;;;;10.84;100.00;98868.59;4958131;28;20025;-86
2023/07/01 13:20:20;;;;;;;;;;;;;;;10.86;100.00;98869.34;4957838;28;20012;-85
2023/07/01 13:22:49;;;;;;;;;;;;;;;10.85;100.00;98868.50;4981185;28;19922;-90
2023/07/01 13:25:16;;;;;;;;;;;;;;;10.92;100.00;98863.69;4958152;28;19945;-87
2023/07/01 13:27:41;;;;;;;;;;;;;;;10.81;100.00;98874.06;4975484;28;20017;-86
2023/07/01 13:30:07;;;;;;;;;;;;;;;10.75;100.00;98869.13;4956513;28;20025;-86
2023/07/01 13:32:32;;;;;;;;;;;;;;;10.81;100.00;98860.81;4975267;28;19937;-86
2023/07/01 13:34:58;;;;;;;;;;;;;;;10.85;100.00;98857.03;4957526;28;19918;-87
2023/07/01 13:37:23;;;;;;;;;;;;;;;10.75;100.00;98859.38;4958043;28;19918;-87
2023/07/01 13:39:49;;;;;;;;;;;;;;;10.99;100.00;98859.75;4957848;28;19918;-88
2023/07/01 13:42:22;;;;;;;;;;;;;;;10.84;100.00;98858.00;4981536;28;20017;-86
2023/07/01 13:44:51;;;;;;;;;;;;;;;10.80;100.00;98851.16;4956486;28;19924;-86
2023/07/01 13:47:22;;;;;;;;;;;;;;;10.79;100.00;98849.47;4975277;28;19918;-86
2023/07/01 13:49:49;;;;;;;;;;;;;;;10.96;100.00;98854.63;4957394;28;19925;-86
2023/07/01 13:52:14;;;;;;;;;;;;;;;10.88;100.00;98844.47;4975004;28;19992;-86
2023/07/01 13:54:39;;;;;;;;;;;;;;;10.86;100.00;98854.28;4957351;28;20369;-84
2023/07/01 13:57:07;;;;;;;;;;;;;;;10.86;100.00;98842.84;4957386;28;20317;-86
2023/07/01 13:59:33;;;;;;;;;;;;;;;10.85;100.00;98846.41;4973255;28;19926;-86
2023/07/01 14:02:02;;;;;;;;;;;;;;;10.87;100.00;98847.22;4956986;28;19922;-86
2023/07/01 14:04:31;;;;;;;;;;;;;;;10.83;100.00;98835.06;4974844;28;19918;-86
2023/07/01 14:06:56;;;;;;;;;;;;;;;10.81;100.00;98836.97;4957278;28;20001;-86
2023/07/01 14:09:25;;;;;;;;;;;;;;;10.87;100.00;98836.59;4974537;28;20449;-88
2023/07/01 14:11:50;;;;;;;;;;;;;;;10.88;100.00;98838.28;4957161;28;20008;-88
2023/07/01 14:14:19;;;;;;;;;;;;;;;10.85;100.00;98835.81;4955962;28;20345;-86
2023/07/01 14:16:44;;;;;;;;;;;;;;;10.87;100.00;98828.66;4974529;28;20026;-86
2023/07/01 14:19:11;;;;;;;;;;;;;;;10.88;100.00;98827.69;4974406;28;20004;-92
2023/07/01 14:21:38;;;;;;;;;;;;;;;10.96;100.00;98830.75;4974376;28;19922;-85
2023/07/01 14:24:04;;;;;;;;;;;;;;;10.90;100.00;98823.19;4956108;28;20008;-87
2023/07/01 14:26:31;;;;;;;;;;;;;;;10.91;100.00;98822.22;4956879;28;19918;-86
2023/07/01 14:29:00;;;;;;;;;;;;;;;11.04;100.00;98820.56;4973034;28;19929;-86
2023/07/01 14:31:32;;;;;;;;;;;;;;;10.90;100.00;98815.22;4980360;28;19926;-86
2023/07/01 14:34:02;;;;;;;;;;;;;;;10.85;100.00;98817.28;4974023;28;20393;-85
2023/07/01 14:36:27;;;;;;;;;;;;;;;10.93;100.00;98815.03;4973717;28;20396;-86
2023/07/01 14:38:53;;;;;;;;;;;;;;;10.93;100.00;98815.03;4981015;28;19921;-85
2023/07/01 14:41:20;;;;;;;;;;;;;;;10.86;100.00;98814.53;4973976;28;19965;-86
2023/07/01 14:43:53;;;;;;;;;;;;;;;10.84;100.00;98815.59;4972559;28;19918;-84
2023/07/01 14:46:18;;;;;;;;;;;;;;;10.87;100.00;98818.06;4956133;28;20337;-85
2023/07/01 14:48:44;;;;;;;;;;;;;;;10.89;100.00;98813.50;4973905;28;19925;-87
2023/07/01 14:51:09;;;;;;;;;;;;;;;10.82;100.00;98813.03;4973884;28;19919;-88
2023/07/01 14:53:35;;;;;;;;;;;;;;;10.92;100.00;98810.69;4974068;28;19972;-85
2023/07/01 14:56:00;;;;;;;;;;;;;;;10.99;100.00;98800.56;4973768;28;19922;-89
2023/07/01 14:58:25;;;;;;;;;;;;;;;10.86;100.00;98798.63;4973824;28;19999;-83
2023/07/01 15:00:50;;;;;;;;;;;;;;;10.88;100.00;98801.19;4972576;28;19938;-85
2023/07/01 15:03:16;;;;;;;;;;;;;;;10.89;100.00;98802.91;4973730;28;19918;-85
2023/07/01 15:05:41;;;;;;;;;;;;;;;11.03;100.00;98800.28;4956377;28;19929;-85
2023/07/01 15:08:06;;;;;;;;;;;;;;;10.98;100.00;98802.38;4956362;28;19918;-86
2023/07/01 15:10:35;;;;;;;;;;;;;;;10.88;100.00;98796.75;4973683;28;19922;-85
2023/07/01 15:13:01;;;;;;;;;;;;;;;10.95;100.00;98802.53;4979852;28;19925;-87
2023/07/01 15:15:26;;;;;;;;;;;;;;;10.97;100.00;98800.66;4972623;28;19918;-85
2023/07/01 15:17:51;;;;;;;;;;;;;;;10.93;100.00;98798.28;4973471;28;19940;-86
2023/07/01 15:20:16;;;;;;;;;;;;;;;10.95;100.00;98791.09;4956057;28;20452;-85
2023/07/01 15:22:42;;;;;;;;;;;;;;;11.01;100.00;98791.56;4973474;28;19976;-85
2023/07/01 15:25:07;;;;;;;;;;;;;;;11.01;100.00;98793.34;4972488;28;19985;-84
2023/07/01 15:27:32;;;;;;;;;;;;;;;10.95;100.00;98789.28;4955892;28;19926;-86
2023/07/01 15:30:04;;;;;;;;;;;;;;;10.95;100.00;98788.44;4972145;28;19918;-86
2023/07/01 15:32:29;;;;;;;;;;;;;;;11.03;100.00;98780.88;4973267;28;19922;-86
2023/07/01 15:34:54;;;;;;;;;;;;;;;11.09;100.00;98785.81;4973462;28;19925;-89
2023/07/01 15:37:20;;;;;;;;;;;;;;;11.02;100.00;98782.66;4956048;28;19925;-87
2023/07/01 15:39:45;;;;;;;;;;;;;;;10.99;100.00;98782.88;4955785;28;20009;-85
2023/07/01 15:42:11;;;;;;;;;;;;;;;11.02;100.00;98793.25;4973033;28;19922;-87
2023/07/01 15:44:36;;;;;;;;;;;;;;;11.01;100.00;98790.72;4971503;28;19970;-86
2023/07/01 15:47:01;;;;;;;;;;;;;;;11.24;100.00;98815.84;4973132;28;19929;-85
2023/07/01 15:49:27;;;;;;;;;;;;;;;11.17;100.00;98819.78;4973127;28;19993;-86
2023/07/01 15:51:53;;;;;;;;;;;;;;;11.07;100.00;98807.13;4973160;28;19968;-86
2023/07/01 15:54:18;;;;;;;;;;;;;;;11.14;100.00;98796.16;4955760;28;19926;-86
2023/07/01 15:56:43;;;;;;;;;;;;;;;11.16;100.00;98789.78;4973001;28;19919;-85
2023/07/01 15:59:09;;;;;;;;;;;;;;;11.13;100.00;98799.72;4977966;28;20301;-85
2023/07/01 16:01:34;;;;;;;;;;;;;;;11.15;100.00;98789.88;4973194;28;19918;-86
2023/07/01 16:03:59;;;;;;;;;;;;;;;11.32;100.00;98783.56;4955545;28;20370;-85
2023/07/01 16:06:25;;;;;;;;;;;;;;;11.17;100.00;98780.03;4979677;28;19952;-89
2023/07/01 16:08:50;;;;;;;;;;;;;;;11.22;100.00;98783.25;4979687;28;19918;-86
2023/07/01 16:11:27;;;;;;;;;;;;;;;11.19;100.00;98791.41;4955135;28;20305;-88
2023/07/01 16:13:53;;;;;;;;;;;;;;;11.13;100.00;98792.63;4971586;28;19937;-86
2023/07/01 16:16:18;;;;;;;;;;;;;;;11.17;100.00;98787.97;4972761;28;20321;-87
2023/07/01 16:18:46;;;;;;;;;;;;;;;11.22;100.00;98777.97;4955396;28;20071;-86
2023/07/01 16:21:12;;;;;;;;;;;;;;;11.20;100.00;98786.00;4972842;28;20047;-87
2023/07/01 16:23:58;;;;;;;;;;;;;;;11.22;100.00;98780.63;4972614;28;19918;-87
2023/07/01 16:26:23;;;;;;;;;;;;;;;11.21;100.00;98778.91;4954537;28;20415;-85
2023/07/01 16:28:49;;;;;;;;;;;;;;;11.16;100.00;98781.00;4954413;28;19918;-86
2023/07/01 16:31:18;;;;;;;;;;;;;;;11.15;100.00;98785.41;4972253;28;20387;-86
2023/07/01 16:33:44;;;;;;;;;;;;;;;11.22;100.00;98777.97;4972664;28;19961;-85
2023/07/01 16:36:12;;;;;;;;;;;;;;;11.18;100.00;98787.03;4972540;28;19961;-85
2023/07/01 16:38:37;;;;;;;;;;;;;;;11.30;100.00;98781.00;4972663;28;20440;-85
2023/07/01 16:41:04;;;;;;;;;;;;;;;11.31;100.00;98766.75;4972594;28;19926;-87
2023/07/01 16:43:34;;;;;;;;;;;;;;;11.47;100.00;98771.13;4972521;28;20005;-86
2023/07/01 16:46:00;;;;;;;;;;;;;;;11.27;100.00;98778.53;4971333;28;19918;-85
2023/07/01 16:48:42;;;;;;;;;;;;;;;11.33;100.00;98769.31;4972628;28;20360;-85
2023/07/01 16:51:07;;;;;;;;;;;;;;;11.31;100.00;98757.97;4971888;28;19968;-86
2023/07/01 16:53:36;;;;;;;;;;;;;;;11.27;100.00;98768.75;4979438;28;20013;-85
2023/07/01 16:56:02;;;;;;;;;;;;;;;11.29;100.00;98765.16;4972910;28;20270;-86
2023/07/01 16:58:35;;;;;;;;;;;;;;;11.30;100.00;98774.84;4975995;28;19929;-86
2023/07/01 17:01:06;;;;;;;;;;;;;;;11.31;100.00;98766.75;4957071;28;19922;-86
2023/07/01 17:03:31;;;;;;;;;;;;;;;11.37;100.00;98771.69;4958256;28;20398;-86
2023/07/01 17:05:56;;;;;;;;;;;;;;;11.27;100.00;98770.56;4975964;28;20013;-85
2023/07/01 17:08:23;;;;;;;;;;;;;;;11.48;100.00;98778.97;4973478;28;19933;-87
2023/07/01 17:10:49;;;;;;;;;;;;;;;11.30;100.00;98781.00;4974401;28;19926;-85
2023/07/01 17:13:33;;;;;;;;;;;;;;;11.29;100.00;98779.28;4974966;28;19925;-86
2023/07/01 17:15:59;;;;;;;;;;;;;;;11.32;100.00;98778.25;4955628;28;19922;-85
2023/07/01 17:18:25;;;;;;;;;;;;;;;11.27;100.00;98773.22;4973368;28;19922;-89
2023/07/01 17:20:55;;;;;;;;;;;;;;;11.27;100.00;98779.38;4958367;28;19972;-86
2023/07/01 17:23:20;;;;;;;;;;;;;;;11.51;100.00;98785.91;4959581;28;19993;-89
2023/07/01 17:25:49;;;;;;;;;;;;;;;11.33;100.00;98777.28;4958535;28;20494;-92
2023/07/01 17:28:14;;;;;;;;;;;;;;;11.40;100.00;98791.88;4975401;28;19965;-85
2023/07/01 17:30:39;;;;;;;;;;;;;;;11.39;100.00;98788.38;4974047;28;19981;-87
2023/07/01 17:33:05;;;;;;;;;;;;;;;11.43;100.00;98795.19;4974079;28;19922;-87
2023/07/01 17:35:30;;;;;;;;;;;;;;;11.36;100.00;98791.22;4956344;28;19933;-86
2023/07/01 17:37:55;;;;;;;;;;;;;;;11.36;100.00;98793.00;4975151;28;19925;-85
2023/07/01 17:40:22;;;;;;;;;;;;;;;11.27;100.00;98797.94;4957747;28;20250;-85
2023/07/01 17:42:51;;;;;;;;;;;;;;;11.31;100.00;98800.41;4974932;28;19918;-85
2023/07/01 17:45:16;;;;;;;;;;;;;;;11.47;100.00;98800.31;4980083;28;19925;-84
2023/07/01 17:47:42;;;;;;;;;;;;;;;11.37;100.00;98800.03;4964796;28;20286;-84
2023/07/01 17:50:08;;;;;;;;;;;;;;;11.43;100.00;98803.16;4969772;28;20393;-85
2023/07/01 17:52:33;;;;;;;;;;;;;;;11.36;100.00;98803.59;4965245;28;19928;-84
2023/07/01 17:54:59;;;;;;;;;;;;;;;11.35;100.00;98804.56;4963501;28;19930;-85
2023/07/01 17:57:24;;;;;;;;;;;;;;;11.36;100.00;98804.47;4961264;28;20001;-85
2023/07/01 17:59:49;;;;;;;;;;;;;;;11.40;100.00;98802.47;4962953;28;19922;-86
2023/07/01 18:02:14;;;;;;;;;;;;;;;11.31;100.00;98808.34;4963799;28;19918;-86
2023/07/01 18:04:40;;;;;;;;;;;;;;;11.26;100.00;98812.16;4959112;28;19977;-84
2023/07/01 18:07:05;;;;;;;;;;;;;;;11.29;100.00;98813.75;4958525;28;19943;-85